Time;durP1;ratioP1;P1;durP2;ratioP2;P2;SDS_P1;SDS_P2;PMS_P1;PMS_P2;Temp;Humidity;BMP_temperature;BMP_pressure;BME280_temperature;BME280_humidity;BME280_pressure;Samples;Min_cycle;Max_cycle;Signal;HPM_P1;HPM_P2
2021/08/19 00:01:33;;;;;;;7.43;4.90;;;26.90;80.70;;;;;;5041337;28;20452;-43
2021/08/19 00:04:05;;;;;;;11.17;5.07;;;26.90;79.50;;;;;;5041591;28;20452;-43
2021/08/19 00:06:36;;;;;;;9.60;5.30;;;27.00;81.00;;;;;;5040650;28;20483;-43
2021/08/19 00:09:07;;;;;;;13.33;5.77;;;27.10;80.00;;;;;;5040884;28;20518;-43
2021/08/19 00:11:38;;;;;;;8.40;6.20;;;27.20;78.70;;;;;;5041202;28;20446;-42
2021/08/19 00:14:11;;;;;;;9.97;4.37;;;27.10;78.80;;;;;;5040967;28;20492;-42
2021/08/19 00:16:42;;;;;;;7.50;5.20;;;26.90;79.20;;;;;;5040711;28;20482;-42
2021/08/19 00:19:13;;;;;;;6.40;5.07;;;26.90;79.60;;;;;;5041138;28;20502;-42
2021/08/19 00:21:44;;;;;;;6.20;4.40;;;27.00;79.10;;;;;;5039867;28;20445;-43
2021/08/19 00:24:16;;;;;;;8.33;4.30;;;27.00;78.20;;;;;;5041072;28;20458;-43
2021/08/19 00:26:46;;;;;;;7.03;4.83;;;26.80;77.70;;;;;;5037868;28;20504;-43
2021/08/19 00:29:19;;;;;;;5.10;4.60;;;26.70;79.70;;;;;;5041323;28;20524;-42
2021/08/19 00:31:50;;;;;;;6.30;4.33;;;26.60;80.30;;;;;;5040969;28;20451;-43
2021/08/19 00:34:21;;;;;;;6.43;5.03;;;26.70;81.70;;;;;;5040992;28;20511;-43
2021/08/19 00:36:53;;;;;;;6.13;5.20;;;26.60;80.40;;;;;;5036656;28;20458;-44
2021/08/19 00:39:25;;;;;;;6.40;4.90;;;26.60;80.80;;;;;;5035155;28;20949;-43
2021/08/19 00:41:56;;;;;;;8.73;5.43;;;26.40;82.40;;;;;;5050216;28;20469;-42
2021/08/19 00:44:28;;;;;;;6.50;4.53;;;26.30;82.70;;;;;;5040005;28;20510;-42
2021/08/19 00:46:59;;;;;;;6.20;5.20;;;26.30;83.60;;;;;;5042532;28;20458;-42
2021/08/19 00:49:30;;;;;;;5.00;4.47;;;26.20;84.60;;;;;;5053741;28;20495;-42
2021/08/19 00:52:02;;;;;;;6.07;4.70;;;26.30;84.20;;;;;;5046586;27;20488;-42
2021/08/19 00:54:33;;;;;;;7.07;5.20;;;26.30;83.90;;;;;;5048263;28;20453;-42
2021/08/19 00:57:05;;;;;;;6.57;5.27;;;26.30;84.40;;;;;;5041475;28;20826;-43
2021/08/19 00:59:39;;;;;;;8.13;5.23;;;26.40;83.10;;;;;;5042651;28;20448;-42
2021/08/19 01:02:11;;;;;;;5.63;4.60;;;26.30;83.50;;;;;;5047308;28;20486;-43
2021/08/19 01:04:43;;;;;;;8.80;4.73;;;26.10;84.00;;;;;;5058352;28;20454;-42
2021/08/19 01:07:14;;;;;;;6.53;4.50;;;26.20;84.90;;;;;;5029265;28;20495;-43
2021/08/19 01:09:45;;;;;;;5.20;4.57;;;26.30;85.70;;;;;;5048084;28;20525;-43
2021/08/19 01:12:16;;;;;;;8.40;4.70;;;26.40;85.70;;;;;;5042961;28;20438;-41
2021/08/19 01:14:49;;;;;;;8.07;5.13;;;26.60;85.60;;;;;;5040580;28;20480;-43
2021/08/19 01:17:20;;;;;;;5.10;4.50;;;26.90;83.60;;;;;;5047531;28;20485;-43
2021/08/19 01:20:11;;;;;;;6.53;5.03;;;26.90;83.90;;;;;;5059470;28;20516;-43
2021/08/19 01:22:42;;;;;;;6.73;4.70;;;27.00;83.00;;;;;;5051878;28;20482;-43
2021/08/19 01:25:14;;;;;;;5.50;4.33;;;27.00;82.70;;;;;;5040270;28;20437;-41
2021/08/19 01:27:48;;;;;;;6.37;4.60;;;27.10;83.20;;;;;;5055656;28;20478;-43
2021/08/19 01:30:19;;;;;;;7.07;4.80;;;27.30;82.80;;;;;;5041962;28;20468;-42
2021/08/19 01:32:50;;;;;;;5.87;4.73;;;27.20;82.00;;;;;;5054638;28;20525;-42
2021/08/19 01:35:23;;;;;;;5.90;4.43;;;27.20;80.10;;;;;;5057183;28;20447;-42
2021/08/19 01:37:54;;;;;;;5.90;4.23;;;27.00;80.70;;;;;;5058705;28;20555;-43
2021/08/19 01:40:25;;;;;;;6.63;4.33;;;26.80;80.60;;;;;;5047714;28;20451;-43
2021/08/19 01:42:57;;;;;;;6.73;4.90;;;26.80;81.60;;;;;;5052047;28;20532;-42
2021/08/19 01:45:28;;;;;;;8.07;4.97;;;26.90;81.30;;;;;;5041944;28;20506;-43
2021/08/19 01:47:59;;;;;;;8.30;5.17;;;26.80;82.10;;;;;;5040371;28;20454;-42
2021/08/19 01:50:30;;;;;;;8.80;5.20;;;26.70;83.40;;;;;;5051683;28;20480;-42
2021/08/19 01:53:01;;;;;;;6.63;4.70;;;26.80;83.70;;;;;;5061768;28;20503;-43
2021/08/19 01:55:32;;;;;;;8.53;5.33;;;26.70;83.30;;;;;;5051549;28;20449;-42
2021/08/19 01:58:05;;;;;;;8.23;5.70;;;26.60;83.80;;;;;;5052753;28;20437;-44
2021/08/19 02:00:36;;;;;;;8.20;5.00;;;26.50;84.80;;;;;;5051770;28;20482;-44
2021/08/19 02:03:08;;;;;;;8.73;4.57;;;26.40;85.00;;;;;;5040016;28;20476;-43
2021/08/19 02:05:39;;;;;;;6.93;4.90;;;26.30;85.10;;;;;;5039278;28;20524;-43
2021/08/19 02:08:11;;;;;;;7.50;5.50;;;26.20;84.30;;;;;;5038813;28;20807;-43
2021/08/19 02:10:42;;;;;;;6.90;4.83;;;26.10;84.70;;;;;;5041376;28;20454;-42
2021/08/19 02:13:16;;;;;;;9.77;5.00;;;26.00;84.40;;;;;;5039914;28;20453;-41
2021/08/19 02:15:47;;;;;;;7.03;4.90;;;26.00;84.40;;;;;;5040304;28;20477;-42
2021/08/19 02:18:18;;;;;;;9.67;5.57;;;25.90;84.70;;;;;;5027130;28;20492;-42
2021/08/19 02:20:49;;;;;;;7.40;4.60;;;25.70;85.80;;;;;;5032006;28;20466;-41
2021/08/19 02:23:20;;;;;;;5.70;4.20;;;25.70;86.00;;;;;;5047940;28;20446;-43
2021/08/19 02:25:51;;;;;;;7.83;5.43;;;25.70;86.10;;;;;;5026617;28;20459;-42
2021/08/19 02:28:23;;;;;;;9.30;5.00;;;25.60;86.90;;;;;;5023195;28;20478;-43
2021/08/19 02:30:54;;;;;;;6.20;4.73;;;25.60;87.50;;;;;;5030344;28;20596;-43
2021/08/19 02:33:26;;;;;;;9.50;5.27;;;25.60;87.10;;;;;;5050610;28;20457;-43
2021/08/19 02:35:57;;;;;;;8.80;5.30;;;25.50;87.00;;;;;;5045580;28;20506;-42
2021/08/19 02:38:28;;;;;;;9.03;5.00;;;25.50;87.00;;;;;;5048697;28;20464;-42
2021/08/19 02:40:59;;;;;;;7.93;5.40;;;25.40;88.10;;;;;;5049692;28;20535;-42
2021/08/19 02:43:31;;;;;;;9.03;6.10;;;25.40;88.40;;;;;;5037580;28;20453;-43
2021/08/19 02:46:02;;;;;;;11.40;5.20;;;25.30;88.20;;;;;;5041824;28;20457;-43
2021/08/19 02:48:34;;;;;;;7.53;4.80;;;25.20;88.80;;;;;;5036139;28;20553;-43
2021/08/19 02:51:05;;;;;;;10.43;7.90;;;25.10;89.70;;;;;;5034671;28;20502;-43
2021/08/19 02:53:36;;;;;;;6.30;4.67;;;25.10;89.10;;;;;;5038418;28;20847;-43
2021/08/19 02:56:07;;;;;;;5.77;4.40;;;25.00;89.60;;;;;;5041155;28;20476;-43
2021/08/19 02:58:40;;;;;;;5.90;5.13;;;25.00;89.10;;;;;;5045978;28;20451;-42
2021/08/19 03:01:11;;;;;;;5.33;4.50;;;25.00;89.90;;;;;;5042313;28;20464;-43
2021/08/19 03:03:42;;;;;;;6.20;4.50;;;24.80;90.00;;;;;;5057755;28;20456;-42
2021/08/19 03:06:13;;;;;;;8.97;5.20;;;24.80;90.00;;;;;;5050345;28;20984;-42
2021/08/19 03:08:44;;;;;;;9.20;5.13;;;24.70;89.90;;;;;;5035614;28;20534;-43
2021/08/19 03:11:15;;;;;;;7.63;4.67;;;24.60;90.10;;;;;;5052228;28;20967;-42
2021/08/19 03:13:48;;;;;;;4.97;4.30;;;24.50;90.40;;;;;;5049145;28;20477;-41
2021/08/19 03:16:19;;;;;;;10.00;4.30;;;24.40;90.40;;;;;;5035141;28;20526;-42
2021/08/19 03:18:51;;;;;;;9.23;4.60;;;24.40;90.50;;;;;;5061572;28;20452;-42
2021/08/19 03:21:40;;;;;;;6.30;4.47;;;24.20;90.90;;;;;;5059254;28;20498;-41
2021/08/19 03:24:11;;;;;;;8.37;4.90;;;24.20;90.70;;;;;;5054470;28;20448;-43
2021/08/19 03:26:42;;;;;;;9.77;4.87;;;24.10;91.10;;;;;;5051577;28;20427;-42
2021/08/19 03:29:15;;;;;;;8.53;4.97;;;24.10;91.10;;;;;;5055677;27;20486;-42
2021/08/19 03:31:46;;;;;;;6.83;5.10;;;24.00;91.20;;;;;;5040981;28;20412;-43
2021/08/19 03:34:17;;;;;;;7.10;4.20;;;24.00;91.00;;;;;;5047124;28;20462;-43
2021/08/19 03:36:48;;;;;;;5.53;4.50;;;23.90;91.10;;;;;;5038013;28;20484;-42
2021/08/19 03:39:19;;;;;;;7.70;5.30;;;23.80;91.10;;;;;;5056667;28;20466;-42
2021/08/19 03:41:50;;;;;;;7.70;5.53;;;23.70;91.70;;;;;;5044885;28;20473;-43
2021/08/19 03:44:22;;;;;;;10.40;5.50;;;23.60;91.90;;;;;;5056821;28;20445;-43
2021/08/19 03:46:53;;;;;;;11.10;5.80;;;23.60;92.10;;;;;;5042346;27;20525;-42
2021/08/19 03:49:24;;;;;;;8.37;5.80;;;23.40;92.00;;;;;;5038292;28;20468;-42
2021/08/19 03:51:55;;;;;;;8.03;5.40;;;23.40;92.10;;;;;;5050665;28;20490;-43
2021/08/19 03:54:27;;;;;;;8.10;5.90;;;23.40;92.20;;;;;;5041468;28;20477;-43
2021/08/19 03:56:58;;;;;;;8.60;5.27;;;23.20;92.10;;;;;;5046867;28;20440;-43
2021/08/19 03:59:30;;;;;;;9.10;5.80;;;23.10;92.30;;;;;;5043113;28;20560;-43
2021/08/19 04:02:04;;;;;;;7.97;5.83;;;23.00;92.50;;;;;;5026525;28;20486;-43
2021/08/19 04:04:35;;;;;;;10.50;6.27;;;22.90;92.90;;;;;;5069221;27;20428;-43
2021/08/19 04:07:07;;;;;;;7.27;5.70;;;22.80;93.10;;;;;;5030278;28;20493;-42
2021/08/19 04:09:37;;;;;;;6.50;5.67;;;22.70;93.30;;;;;;5059227;28;20459;-43
2021/08/19 04:12:09;;;;;;;9.80;5.70;;;22.60;93.50;;;;;;5041557;28;20477;-43
2021/08/19 04:14:42;;;;;;;10.87;5.40;;;22.50;93.70;;;;;;5040850;28;20421;-43
2021/08/19 04:17:13;;;;;;;10.60;6.00;;;22.40;93.80;;;;;;5040304;28;20547;-43
2021/08/19 04:19:44;;;;;;;9.73;5.63;;;22.30;94.20;;;;;;5037792;28;20444;-43
2021/08/19 04:22:15;;;;;;;8.37;5.50;;;22.20;94.60;;;;;;5039705;28;20448;-43
2021/08/19 04:24:46;;;;;;;9.80;6.60;;;22.20;94.60;;;;;;5040100;28;20439;-43
2021/08/19 04:27:17;;;;;;;7.80;5.73;;;22.10;94.80;;;;;;5041190;27;20416;-43
2021/08/19 04:29:50;;;;;;;6.23;4.87;;;22.10;94.80;;;;;;5117958;27;20793;-44
2021/08/19 04:32:21;;;;;;;7.43;5.60;;;22.00;95.50;;;;;;5039749;28;20449;-43
2021/08/19 04:34:52;;;;;;;10.20;6.13;;;21.80;95.70;;;;;;5040771;28;20432;-43
2021/08/19 04:37:23;;;;;;;10.83;6.30;;;21.80;96.00;;;;;;5035937;28;20456;-42
2021/08/19 04:39:55;;;;;;;8.23;5.90;;;21.80;96.30;;;;;;5047303;27;20508;-42
2021/08/19 04:42:26;;;;;;;10.87;6.10;;;21.70;96.60;;;;;;5040642;28;20451;-42
2021/08/19 04:44:58;;;;;;;10.93;7.13;;;21.60;97.00;;;;;;5040774;28;20458;-42
2021/08/19 04:47:29;;;;;;;9.03;6.03;;;21.60;97.40;;;;;;5020717;28;20451;-43
2021/08/19 04:50:00;;;;;;;7.07;6.10;;;21.50;97.70;;;;;;5030406;28;20484;-43
2021/08/19 04:52:31;;;;;;;10.77;6.93;;;21.30;98.30;;;;;;5039049;28;20500;-43
2021/08/19 04:55:03;;;;;;;11.27;7.13;;;21.20;98.30;;;;;;5041385;27;20435;-43
2021/08/19 04:57:34;;;;;;;9.80;5.83;;;21.10;98.80;;;;;;5045317;27;21053;-42
2021/08/19 05:00:08;;;;;;;9.80;6.03;;;21.00;99.10;;;;;;5041200;28;20422;-43
2021/08/19 05:02:39;;;;;;;9.30;6.60;;;20.90;99.80;;;;;;5039076;28;20424;-43
2021/08/19 05:05:11;;;;;;;6.73;5.70;;;20.90;99.70;;;;;;5072536;27;20449;-43
2021/08/19 05:07:42;;;;;;;12.17;6.20;;;20.80;99.70;;;;;;5039012;28;20546;-43
2021/08/19 05:10:13;;;;;;;9.90;6.43;;;20.70;99.90;;;;;;5023247;28;20490;-43
2021/08/19 05:12:44;;;;;;;10.03;6.90;;;20.60;99.90;;;;;;5037118;28;20452;-43
2021/08/19 05:15:17;;;;;;;8.70;5.67;;;20.50;99.90;;;;;;5040906;27;20458;-43
2021/08/19 05:17:48;;;;;;;10.73;7.30;;;20.50;99.90;;;;;;5038969;28;20453;-43
2021/08/19 05:20:20;;;;;;;11.63;7.60;;;20.50;99.90;;;;;;5034967;28;20498;-42
2021/08/19 05:22:51;;;;;;;10.13;6.90;;;20.30;99.90;;;;;;5037768;28;20471;-43
2021/08/19 05:25:22;;;;;;;7.40;6.27;;;20.30;99.90;;;;;;5037037;28;20460;-42
2021/08/19 05:27:53;;;;;;;10.97;5.97;;;20.20;99.90;;;;;;5052026;28;20445;-42
2021/08/19 05:30:26;;;;;;;12.50;7.53;;;20.20;99.90;;;;;;5044735;28;20470;-42
2021/08/19 05:32:57;;;;;;;9.73;6.77;;;20.10;99.90;;;;;;5039951;28;20496;-42
2021/08/19 05:35:28;;;;;;;10.50;6.47;;;20.00;99.90;;;;;;5044795;28;20530;-42
2021/08/19 05:37:59;;;;;;;9.70;6.10;;;20.00;99.90;;;;;;5055043;28;20438;-42
2021/08/19 05:40:30;;;;;;;10.70;6.33;;;20.00;99.90;;;;;;5051594;28;20811;-42
2021/08/19 05:43:01;;;;;;;14.57;6.80;;;19.90;99.90;;;;;;5043240;28;20463;-42
2021/08/19 05:45:34;;;;;;;11.63;6.97;;;19.90;99.90;;;;;;5040593;28;20556;-42
2021/08/19 05:48:06;;;;;;;9.20;6.00;;;19.80;99.90;;;;;;5039347;28;20854;-42
2021/08/19 05:50:37;;;;;;;15.87;7.20;;;19.80;99.90;;;;;;5047453;28;20492;-42
2021/08/19 05:53:08;;;;;;;9.03;5.97;;;19.70;99.90;;;;;;5028407;28;20481;-42
2021/08/19 05:55:39;;;;;;;10.63;6.63;;;19.60;99.90;;;;;;5039641;28;20529;-42
2021/08/19 05:58:12;;;;;;;13.77;6.90;;;19.60;99.90;;;;;;5049727;28;20416;-42
2021/08/19 06:00:48;;;;;;;10.80;6.63;;;19.50;99.90;;;;;;5042972;28;20438;-42
2021/08/19 06:03:21;;;;;;;14.23;7.97;;;19.50;99.90;;;;;;5039552;28;20481;-42
2021/08/19 06:05:52;;;;;;;11.90;6.37;;;19.50;99.90;;;;;;5039546;28;20439;-42
2021/08/19 06:08:23;;;;;;;13.00;7.13;;;19.40;99.90;;;;;;5055550;28;20520;-42
2021/08/19 06:10:54;;;;;;;14.07;7.87;;;19.40;99.90;;;;;;5048684;28;20547;-42
2021/08/19 06:13:25;;;;;;;12.20;7.80;;;19.20;99.90;;;;;;5051920;28;20407;-42
2021/08/19 06:15:57;;;;;;;14.27;7.20;;;19.10;99.90;;;;;;5051955;28;20557;-42
2021/08/19 06:18:31;;;;;;;10.90;7.00;;;19.10;99.90;;;;;;5042114;28;20544;-41
2021/08/19 06:21:02;;;;;;;10.87;7.00;;;19.00;99.90;;;;;;5042022;28;20463;-42
2021/08/19 06:23:33;;;;;;;15.40;7.77;;;18.90;99.90;;;;;;5043902;28;20465;-42
2021/08/19 06:26:04;;;;;;;14.67;6.97;;;18.90;99.90;;;;;;5055865;28;20454;-42
2021/08/19 06:28:35;;;;;;;9.93;6.47;;;18.80;99.90;;;;;;5062421;28;20444;-41
2021/08/19 06:31:08;;;;;;;11.87;7.13;;;18.80;99.90;;;;;;5043355;28;20476;-42
2021/08/19 06:33:39;;;;;;;10.63;7.30;;;18.70;99.90;;;;;;5051238;28;20431;-41
2021/08/19 06:36:12;;;;;;;17.07;7.33;;;18.60;99.90;;;;;;5061662;28;20452;-41
2021/08/19 06:38:43;;;;;;;12.77;7.10;;;18.60;99.90;;;;;;5041301;28;20449;-41
2021/08/19 06:41:14;;;;;;;9.17;7.73;;;18.60;99.90;;;;;;5058102;28;20571;-41
2021/08/19 06:43:45;;;;;;;11.07;7.33;;;18.50;99.90;;;;;;5050705;28;20448;-42
2021/08/19 06:46:17;;;;;;;11.23;7.97;;;18.50;99.90;;;;;;5055264;28;20453;-42
2021/08/19 06:48:48;;;;;;;13.10;7.70;;;18.40;99.90;;;;;;5056798;28;20457;-42
2021/08/19 06:51:19;;;;;;;9.80;7.33;;;18.30;99.90;;;;;;5049693;28;20552;-42
2021/08/19 06:53:50;;;;;;;12.47;7.27;;;18.20;99.90;;;;;;5045287;28;20465;-42
2021/08/19 06:56:21;;;;;;;13.37;8.17;;;18.20;99.90;;;;;;5042782;28;20475;-42
2021/08/19 06:58:53;;;;;;;14.17;8.07;;;18.20;99.90;;;;;;5042830;28;20584;-42
2021/08/19 07:01:25;;;;;;;8.67;7.10;;;18.10;99.90;;;;;;5056682;28;20430;-42
2021/08/19 07:03:57;;;;;;;10.60;6.90;;;18.10;99.90;;;;;;5045800;27;20424;-42
2021/08/19 07:06:28;;;;;;;11.00;7.67;;;18.10;99.90;;;;;;5041744;28;20533;-42
2021/08/19 07:08:59;;;;;;;14.60;7.77;;;18.00;99.90;;;;;;5035676;28;20429;-42
2021/08/19 07:11:30;;;;;;;12.53;7.40;;;17.90;99.90;;;;;;5055049;28;20536;-42
2021/08/19 07:14:01;;;;;;;16.83;7.77;;;17.80;99.90;;;;;;5046173;28;20916;-42
2021/08/19 07:16:33;;;;;;;14.87;8.10;;;17.80;99.90;;;;;;5041849;28;20484;-41
2021/08/19 07:19:06;;;;;;;13.03;7.70;;;17.80;99.90;;;;;;5042250;28;20523;-42
2021/08/19 07:21:37;;;;;;;10.83;7.93;;;17.70;99.90;;;;;;5049024;28;20449;-41
2021/08/19 07:24:08;;;;;;;12.57;7.63;;;17.70;99.90;;;;;;5041723;28;20420;-42
2021/08/19 07:26:39;;;;;;;15.13;8.00;;;17.70;99.90;;;;;;5042489;28;20478;-42
2021/08/19 07:29:10;;;;;;;11.10;7.07;;;17.60;99.90;;;;;;5057771;28;20455;-42
2021/08/19 07:31:43;;;;;;;13.50;7.27;;;17.50;99.90;;;;;;5045525;28;20496;-42
2021/08/19 07:34:14;;;;;;;12.83;8.03;;;17.50;99.90;;;;;;5043930;28;20506;-42
2021/08/19 07:36:45;;;;;;;15.70;8.90;;;17.50;99.90;;;;;;5041053;28;20506;-41
2021/08/19 07:39:16;;;;;;;17.20;7.97;;;17.50;99.90;;;;;;5048339;28;20446;-41
2021/08/19 07:41:47;;;;;;;10.53;7.10;;;17.40;99.90;;;;;;5046678;28;20867;-42
2021/08/19 07:44:18;;;;;;;13.03;7.53;;;17.40;99.90;;;;;;5061155;27;20914;-41
2021/08/19 07:46:51;;;;;;;13.17;8.50;;;17.40;99.90;;;;;;5048961;28;20453;-42
2021/08/19 07:49:21;;;;;;;11.10;8.00;;;17.30;99.90;;;;;;5051283;28;20478;-41
2021/08/19 07:51:52;;;;;;;14.27;8.63;;;17.20;99.90;;;;;;5044702;28;20557;-42
2021/08/19 07:54:23;;;;;;;10.77;7.60;;;17.20;99.90;;;;;;5041789;28;20522;-42
2021/08/19 07:56:54;;;;;;;11.37;8.33;;;17.20;99.90;;;;;;5054172;28;20453;-41
2021/08/19 07:59:26;;;;;;;11.00;7.50;;;17.20;99.90;;;;;;5043235;28;20436;-42
2021/08/19 08:02:15;;;;;;;11.83;8.33;;;17.20;99.90;;;;;;5048495;28;20774;-42
2021/08/19 08:04:46;;;;;;;14.50;8.60;;;17.20;99.90;;;;;;5048201;28;20488;-41
2021/08/19 08:07:17;;;;;;;11.73;7.87;;;17.10;99.90;;;;;;5035948;28;20498;-42
2021/08/19 08:09:48;;;;;;;11.50;8.30;;;17.00;99.90;;;;;;5053934;28;20452;-42
2021/08/19 08:12:19;;;;;;;17.13;8.73;;;16.90;99.90;;;;;;5044212;28;20534;-41
2021/08/19 08:14:51;;;;;;;19.53;8.63;;;16.80;99.90;;;;;;5041555;28;20519;-42
2021/08/19 08:17:23;;;;;;;14.17;7.00;;;16.80;99.90;;;;;;5047625;28;20453;-41
2021/08/19 08:19:54;;;;;;;13.70;7.30;;;16.80;99.90;;;;;;5044912;28;20505;-41
2021/08/19 08:22:25;;;;;;;19.60;9.63;;;16.80;99.90;;;;;;5045742;28;20453;-42
2021/08/19 08:24:59;;;;;;;14.10;8.27;;;16.70;99.90;;;;;;5053747;28;20453;-42
2021/08/19 08:27:30;;;;;;;12.73;8.07;;;16.60;99.90;;;;;;5040419;27;20526;-42
2021/08/19 08:30:02;;;;;;;12.03;8.20;;;16.60;99.90;;;;;;5049807;28;20479;-42
2021/08/19 08:32:34;;;;;;;14.57;9.03;;;16.60;99.90;;;;;;5040886;28;20481;-42
2021/08/19 08:35:07;;;;;;;14.27;7.70;;;16.50;99.90;;;;;;5040848;28;20458;-42
2021/08/19 08:37:38;;;;;;;15.17;9.60;;;16.50;99.90;;;;;;5039777;28;20450;-42
2021/08/19 08:40:12;;;;;;;18.80;8.83;;;16.50;99.90;;;;;;5055691;28;20510;-42
2021/08/19 08:42:44;;;;;;;15.97;8.60;;;16.50;99.90;;;;;;5040333;28;20487;-42
2021/08/19 08:45:17;;;;;;;12.00;7.43;;;16.50;99.90;;;;;;5050010;28;20464;-42
2021/08/19 08:47:51;;;;;;;17.87;8.40;;;16.40;99.90;;;;;;5041388;28;20522;-42
2021/08/19 08:50:24;;;;;;;13.53;8.10;;;16.30;99.90;;;;;;5048422;28;20848;-42
2021/08/19 08:52:58;;;;;;;14.37;9.33;;;16.30;99.90;;;;;;5039917;28;20500;-42
2021/08/19 08:55:29;;;;;;;18.83;8.67;;;16.30;99.90;;;;;;5040595;28;20599;-42
2021/08/19 08:58:01;;;;;;;19.10;9.00;;;16.20;99.90;;;;;;5040414;28;20749;-42
2021/08/19 09:00:32;;;;;;;14.20;8.83;;;16.30;99.90;;;;;;5056415;28;20480;-42
2021/08/19 09:03:16;;;;;;;11.40;8.87;;;16.20;99.90;;;;;;5035944;28;20453;-42
2021/08/19 09:05:49;;;;;;;13.67;8.10;;;16.20;99.90;;;;;;5049027;28;20459;-42
2021/08/19 09:08:21;;;;;;;18.13;10.00;;;16.20;99.90;;;;;;5048277;28;20963;-42
2021/08/19 09:10:53;;;;;;;13.90;8.30;;;16.20;99.90;;;;;;5043743;28;20441;-41
2021/08/19 09:13:27;;;;;;;11.33;7.90;;;16.20;99.90;;;;;;5040584;28;20481;-42
2021/08/19 09:16:16;;;;;;;11.53;8.37;;;16.10;99.90;;;;;;5050031;28;20470;-42
2021/08/19 09:18:49;;;;;;;13.23;9.03;;;16.10;99.90;;;;;;5043380;28;20498;-42
2021/08/19 09:21:22;;;;;;;17.17;8.63;;;16.00;99.90;;;;;;5039001;28;20464;-43
2021/08/19 09:24:13;;;;;;;14.67;8.00;;;16.00;99.90;;;;;;5039067;28;20454;-42
2021/08/19 09:26:45;;;;;;;11.73;7.83;;;15.90;99.90;;;;;;5035025;28;20561;-42
2021/08/19 09:29:27;;;;;;;11.07;7.90;;;15.80;99.90;;;;;;5044301;28;20493;-43
2021/08/19 09:32:09;;;;;;;12.80;8.10;;;15.80;99.90;;;;;;5047722;28;20449;-42
2021/08/19 09:34:44;;;;;;;13.97;8.70;;;15.80;99.90;;;;;;5040918;28;20533;-42
2021/08/19 09:37:16;;;;;;;13.23;8.33;;;15.90;99.90;;;;;;5039910;28;20894;-42
2021/08/19 09:39:48;;;;;;;15.17;8.77;;;15.80;99.90;;;;;;5049787;28;20456;-43
2021/08/19 09:42:19;;;;;;;12.13;7.50;;;15.70;99.90;;;;;;5045255;28;20462;-42
2021/08/19 09:44:50;;;;;;;15.37;8.33;;;15.70;99.90;;;;;;5046085;28;20454;-42
2021/08/19 09:47:31;;;;;;;13.13;8.57;;;15.70;99.90;;;;;;5038841;28;20484;-42
2021/08/19 09:50:15;;;;;;;11.80;7.90;;;15.70;99.90;;;;;;5039615;28;20840;-42
2021/08/19 09:52:47;;;;;;;14.40;8.37;;;15.70;99.90;;;;;;5023110;28;20521;-42
2021/08/19 09:55:26;;;;;;;12.50;8.10;;;15.60;99.90;;;;;;5044889;28;20530;-42
2021/08/19 09:57:58;;;;;;;11.50;9.13;;;15.60;99.90;;;;;;5042009;28;20481;-42
2021/08/19 10:00:31;;;;;;;12.23;7.57;;;15.70;99.90;;;;;;5036046;28;20450;-42
2021/08/19 10:03:02;;;;;;;9.73;8.03;;;15.60;99.90;;;;;;5043750;28;20583;-42
2021/08/19 10:05:35;;;;;;;13.30;8.90;;;15.50;99.90;;;;;;5055327;28;20463;-42
2021/08/19 10:08:08;;;;;;;15.63;8.00;;;15.50;99.90;;;;;;5058592;28;20567;-42
2021/08/19 10:10:40;;;;;;;14.73;7.67;;;15.50;99.90;;;;;;5041174;28;20465;-41
2021/08/19 10:13:14;;;;;;;14.70;7.30;;;15.50;99.90;;;;;;5038039;28;20981;-41
2021/08/19 10:15:48;;;;;;;10.77;7.73;;;15.50;99.90;;;;;;5040621;28;20457;-42
2021/08/19 10:18:24;;;;;;;9.70;7.43;;;15.50;99.90;;;;;;5039108;28;20485;-42
2021/08/19 10:21:11;;;;;;;12.50;7.93;;;15.50;99.90;;;;;;5039091;28;20485;-42
2021/08/19 10:24:03;;;;;;;20.33;9.23;;;15.50;99.90;;;;;;5040080;28;20509;-42
2021/08/19 10:26:34;;;;;;;13.77;7.97;;;15.50;99.90;;;;;;5038859;28;20445;-42
2021/08/19 10:29:06;;;;;;;10.47;7.60;;;15.50;99.90;;;;;;5052335;28;20457;-42
2021/08/19 10:31:48;;;;;;;11.40;7.73;;;15.50;99.90;;;;;;5035473;28;20441;-42
2021/08/19 10:34:20;;;;;;;10.57;7.80;;;15.50;99.90;;;;;;5039216;28;20534;-41
2021/08/19 10:36:57;;;;;;;12.07;8.70;;;15.50;99.90;;;;;;5037928;28;20441;-41
2021/08/19 10:39:39;;;;;;;12.40;7.07;;;15.40;99.90;;;;;;5028259;28;20482;-42
2021/08/19 10:42:11;;;;;;;14.33;7.67;;;15.30;99.90;;;;;;5038542;28;20473;-42
2021/08/19 10:44:46;;;;;;;18.77;8.43;;;15.30;99.90;;;;;;5038807;28;20457;-43
2021/08/19 10:47:36;;;;;;;11.30;8.20;;;15.30;99.90;;;;;;5039166;28;20481;-42
2021/08/19 10:50:29;;;;;;;14.33;8.30;;;15.40;99.90;;;;;;5039357;28;20460;-42
2021/08/19 10:53:12;;;;;;;13.43;8.13;;;15.30;99.90;;;;;;5048783;28;20519;-42
2021/08/19 10:55:44;;;;;;;10.80;8.10;;;15.30;99.90;;;;;;5048381;28;20486;-42
2021/08/19 10:58:26;;;;;;;10.33;7.30;;;15.30;99.90;;;;;;5042995;28;20456;-42
2021/08/19 11:00:58;;;;;;;11.60;7.80;;;15.20;99.90;;;;;;5041524;28;20493;-42
2021/08/19 11:03:47;;;;;;;11.60;7.80;;;15.20;99.90;;;;;;5048642;28;20467;-42
2021/08/19 11:06:19;;;;;;;13.03;7.70;;;15.20;99.90;;;;;;5052443;28;20448;-42
2021/08/19 11:08:54;;;;;;;12.17;8.07;;;15.20;99.90;;;;;;5057589;28;20502;-42
2021/08/19 11:11:37;;;;;;;12.40;8.30;;;15.20;99.90;;;;;;5048169;28;20941;-42
2021/08/19 11:14:10;;;;;;;13.90;8.30;;;15.20;99.90;;;;;;5055838;28;20480;-42
2021/08/19 11:16:42;;;;;;;13.23;8.43;;;15.20;99.90;;;;;;5041370;28;20514;-42
2021/08/19 11:19:20;;;;;;;11.13;7.87;;;15.20;99.90;;;;;;5055498;28;20513;-42
2021/08/19 11:21:54;;;;;;;15.50;8.87;;;15.10;99.90;;;;;;5040888;28;20519;-42
2021/08/19 11:24:28;;;;;;;13.30;8.63;;;15.10;99.90;;;;;;5041816;28;20457;-42
2021/08/19 11:27:01;;;;;;;11.87;7.40;;;15.10;99.90;;;;;;5041533;28;20472;-42
2021/08/19 11:29:35;;;;;;;10.60;7.47;;;15.10;99.90;;;;;;5109239;27;20488;-42
2021/08/19 11:32:09;;;;;;;13.27;7.97;;;15.10;99.90;;;;;;5047414;28;20568;-42
2021/08/19 11:34:47;;;;;;;14.73;8.47;;;15.10;99.90;;;;;;5056839;28;20521;-42
2021/08/19 11:37:27;;;;;;;12.63;8.10;;;15.00;99.90;;;;;;5044453;28;20484;-42
2021/08/19 11:40:02;;;;;;;16.23;9.63;;;15.00;99.90;;;;;;5060048;28;20472;-42
2021/08/19 11:42:33;;;;;;;14.63;8.57;;;15.00;99.90;;;;;;5060703;28;20452;-42
2021/08/19 11:45:18;;;;;;;14.27;8.53;;;15.00;99.90;;;;;;5044329;28;20464;-42
2021/08/19 11:47:51;;;;;;;13.27;8.90;;;15.00;99.90;;;;;;5040654;28;20487;-42
2021/08/19 11:50:24;;;;;;;13.57;8.00;;;15.00;99.90;;;;;;5043186;28;20449;-42
2021/08/19 11:53:02;;;;;;;14.30;7.93;;;15.00;99.90;;;;;;5050705;28;20498;-42
2021/08/19 11:55:37;;;;;;;10.17;7.97;;;15.00;99.90;;;;;;5059021;28;20504;-42
2021/08/19 11:58:22;;;;;;;9.70;8.30;;;15.00;99.90;;;;;;5041578;28;20448;-42
2021/08/19 12:01:04;;;;;;;11.20;7.27;;;14.90;99.90;;;;;;5044650;28;20453;-42
2021/08/19 12:03:37;;;;;;;14.93;7.83;;;15.00;99.90;;;;;;5045961;28;20460;-42
2021/08/19 12:06:08;;;;;;;11.17;8.47;;;15.00;99.90;;;;;;5042195;28;20521;-42
2021/08/19 12:08:46;;;;;;;11.13;7.97;;;15.10;99.90;;;;;;5045960;28;20444;-42
2021/08/19 12:11:21;;;;;;;14.10;8.07;;;15.00;99.90;;;;;;5043860;28;20959;-41
2021/08/19 12:14:07;;;;;;;11.27;8.40;;;15.00;99.90;;;;;;5052795;28;20488;-42
2021/08/19 12:16:38;;;;;;;15.03;9.80;;;15.00;99.90;;;;;;5030062;28;20461;-42
2021/08/19 12:19:12;;;;;;;14.70;8.00;;;15.00;99.90;;;;;;5040954;28;20515;-41
2021/08/19 12:21:55;;;;;;;12.20;8.43;;;15.00;99.90;;;;;;5039406;28;20450;-43
2021/08/19 12:24:30;;;;;;;9.50;7.83;;;14.90;99.90;;;;;;5041248;28;20472;-42
2021/08/19 12:27:05;;;;;;;10.97;7.20;;;14.90;99.90;;;;;;5039903;28;20453;-42
2021/08/19 12:29:38;;;;;;;14.00;8.23;;;14.80;99.90;;;;;;5044523;28;20563;-42
2021/08/19 12:32:23;;;;;;;14.73;8.63;;;14.70;99.90;;;;;;5032990;28;20441;-42
2021/08/19 12:34:57;;;;;;;14.47;8.57;;;14.70;99.90;;;;;;5060201;28;20901;-41
2021/08/19 12:37:29;;;;;;;9.83;7.97;;;14.80;99.90;;;;;;5052835;28;20499;-41
2021/08/19 12:40:09;;;;;;;16.97;9.70;;;14.80;99.90;;;;;;5048319;28;20880;-42
2021/08/19 12:42:44;;;;;;;12.87;8.60;;;14.70;99.90;;;;;;5049820;28;20452;-43
2021/08/19 12:45:17;;;;;;;9.83;8.00;;;14.80;99.90;;;;;;5045866;28;20480;-43
2021/08/19 12:47:48;;;;;;;13.70;8.10;;;14.70;99.90;;;;;;5039859;28;20567;-42
2021/08/19 12:50:21;;;;;;;9.30;7.40;;;14.70;99.90;;;;;;5040837;28;20555;-43
2021/08/19 12:52:52;;;;;;;12.83;8.83;;;14.70;99.90;;;;;;5049739;28;20440;-43
2021/08/19 12:55:24;;;;;;;10.13;7.90;;;14.70;99.90;;;;;;5051338;28;20489;-42
2021/08/19 12:57:58;;;;;;;11.10;8.90;;;14.60;99.90;;;;;;5040056;28;20460;-42
2021/08/19 13:00:30;;;;;;;13.33;7.67;;;14.60;99.90;;;;;;5045608;28;20902;-41
2021/08/19 13:03:03;;;;;;;17.43;8.80;;;14.60;99.90;;;;;;5040844;28;20453;-42
2021/08/19 13:05:35;;;;;;;10.00;7.70;;;14.50;99.90;;;;;;5040089;28;20464;-42
2021/08/19 13:08:07;;;;;;;16.10;8.63;;;14.50;99.90;;;;;;5023766;28;20469;-42
2021/08/19 13:10:38;;;;;;;17.00;8.40;;;14.50;99.90;;;;;;5048276;28;20456;-42